createdAt,value
2022-09-10T00:03:42.768Z,91
2022-09-10T00:08:43.501Z,91
2022-09-10T00:13:40.436Z,91
2022-09-10T00:18:40.731Z,91
2022-09-10T00:23:39.957Z,91
2022-09-10T00:28:39.802Z,92
2022-09-10T00:33:38.503Z,92
2022-09-10T00:38:39.180Z,93
2022-09-10T00:43:39.066Z,93
2022-09-10T00:48:38.479Z,93
2022-09-10T00:53:37.033Z,93
2022-09-10T00:58:36.637Z,93
2022-09-10T00:59:57.606Z,93
2022-09-10T01:04:56.889Z,93
2022-09-10T01:09:56.472Z,93
2022-09-10T01:14:54.736Z,94
2022-09-10T01:19:53.910Z,94
2022-09-10T01:24:54.011Z,94
2022-09-10T01:29:54.422Z,95
2022-09-10T01:34:52.755Z,95
2022-09-10T01:39:52.861Z,95
2022-09-10T01:44:51.691Z,95
2022-09-10T01:49:51.200Z,95
2022-09-10T01:54:48.876Z,95
2022-09-10T01:59:19.204Z,95
2022-09-10T02:04:19.747Z,95
2022-09-10T02:09:18.996Z,95
2022-09-10T02:14:19.481Z,95
2022-09-10T02:19:18.669Z,95
2022-09-10T02:24:20.413Z,95
2022-09-10T02:29:06.612Z,95
2022-09-10T02:34:06.583Z,95
2022-09-10T02:39:06.226Z,95
2022-09-10T02:44:05.927Z,95
2022-09-10T02:49:05.098Z,95
2022-09-10T02:54:04.246Z,95
2022-09-10T02:58:58.147Z,95
2022-09-10T03:03:57.461Z,95
2022-09-10T03:08:56.770Z,95
2022-09-10T03:13:54.838Z,95
2022-09-10T03:18:54.434Z,95
2022-09-10T03:23:55.005Z,95
2022-09-10T03:28:54.127Z,95
2022-09-10T03:33:54.227Z,95
2022-09-10T03:38:53.914Z,95
2022-09-10T03:43:53.443Z,95
2022-09-10T03:48:55.709Z,95
2022-09-10T03:53:52.213Z,95
2022-09-10T03:58:51.901Z,95
2022-09-10T04:03:51.376Z,94
2022-09-10T04:08:50.414Z,94
2022-09-10T04:13:48.872Z,94
2022-09-10T04:18:48.269Z,94
2022-09-10T04:23:48.360Z,94
2022-09-10T04:28:47.446Z,94
2022-09-10T04:33:48.067Z,94
2022-09-10T04:38:45.340Z,93
2022-09-10T04:43:45.111Z,93
2022-09-10T04:48:44.887Z,92
2022-09-10T04:53:44.439Z,92
2022-09-10T04:58:44.221Z,92
2022-09-10T05:03:43.252Z,91
2022-09-10T05:08:43.969Z,91
2022-09-10T05:13:42.869Z,91
2022-09-10T05:18:42.535Z,91
2022-09-10T05:23:42.138Z,92
2022-09-10T05:28:41.392Z,92
2022-09-10T05:33:41.224Z,92
2022-09-10T05:38:41.330Z,92
2022-09-10T05:43:38.870Z,92
2022-09-10T05:48:43.042Z,92
2022-09-10T05:53:38.063Z,92
2022-09-10T05:58:38.894Z,92
2022-09-10T06:03:35.537Z,92
2022-09-10T06:08:35.320Z,92
2022-09-10T06:13:35.039Z,93
2022-09-10T06:18:34.691Z,93
2022-09-10T06:23:33.771Z,93
2022-09-10T06:28:33.314Z,93
2022-09-10T06:33:32.711Z,93
2022-09-10T06:38:32.490Z,92
2022-09-10T06:43:31.668Z,92
2022-09-10T06:48:45.806Z,92
2022-09-10T06:53:31.432Z,92
2022-09-10T06:58:31.026Z,92
2022-09-10T06:59:52.616Z,92
2022-09-10T07:04:52.297Z,92
2022-09-10T07:09:51.958Z,91
2022-09-10T07:14:51.001Z,91
2022-09-10T07:19:50.222Z,90
2022-09-10T07:24:48.870Z,90
2022-09-10T07:29:48.171Z,89
2022-09-10T07:34:48.329Z,88
2022-09-10T07:39:47.583Z,88
2022-09-10T07:44:48.204Z,86
2022-09-10T07:49:45.604Z,84
2022-09-10T07:54:45.139Z,85
2022-09-10T07:58:50.710Z,84
2022-09-10T08:03:50.054Z,84
2022-09-10T08:08:48.928Z,85
2022-09-10T08:13:49.134Z,83
2022-09-10T08:18:49.020Z,83
2022-09-10T08:23:49.923Z,83
2022-09-10T08:28:47.174Z,82
2022-09-10T08:33:46.822Z,80
2022-09-10T08:38:47.051Z,80
2022-09-10T08:43:46.936Z,79
2022-09-10T08:48:45.985Z,78
2022-09-10T08:53:45.930Z,79
2022-09-10T08:58:45.273Z,78
2022-09-10T09:03:44.612Z,79
2022-09-10T09:08:44.063Z,80
2022-09-10T09:13:42.551Z,80
2022-09-10T09:18:41.929Z,80
2022-09-10T09:24:13.023Z,80
2022-09-10T09:28:41.718Z,79
2022-09-10T09:33:42.035Z,79
2022-09-10T09:38:39.582Z,79
2022-09-10T09:43:38.939Z,77
2022-09-10T09:48:38.800Z,79
2022-09-10T09:53:39.537Z,79
2022-09-10T09:58:36.857Z,77
2022-09-10T10:03:36.814Z,77
2022-09-10T10:08:37.323Z,77
2022-09-10T10:13:35.487Z,77
2022-09-10T10:18:34.846Z,76
2022-09-10T10:23:34.924Z,76
2022-09-10T10:28:35.910Z,74
2022-09-10T10:33:33.773Z,74
2022-09-10T10:38:33.462Z,73
2022-09-10T10:43:33.373Z,70
2022-09-10T10:48:33.131Z,73
2022-09-10T10:53:33.701Z,69
2022-09-10T10:58:31.094Z,69
2022-09-10T10:59:52.157Z,69
2022-09-10T11:04:52.308Z,69
2022-09-10T11:09:53.040Z,70
2022-09-10T11:14:49.788Z,70
2022-09-10T11:20:24.536Z,71
2022-09-10T11:24:49.678Z,70
2022-09-10T11:29:49.237Z,69
2022-09-10T11:34:48.751Z,64
2022-09-10T11:39:49.187Z,61
2022-09-10T11:44:49.354Z,61
2022-09-10T11:49:47.067Z,63
2022-09-10T11:54:46.690Z,65
2022-09-10T11:58:59.790Z,62
2022-09-10T12:03:59.434Z,62
2022-09-10T12:09:00.226Z,63
2022-09-10T12:13:57.042Z,62
2022-09-10T12:18:56.499Z,62
2022-09-10T12:24:31.713Z,64
2022-09-10T12:28:55.491Z,64
2022-09-10T12:33:54.932Z,64
2022-09-10T12:38:53.687Z,67
2022-09-10T12:43:54.084Z,72
2022-09-10T12:48:51.284Z,73
2022-09-10T12:53:50.609Z,74
2022-09-10T12:58:50.412Z,74
2022-09-10T13:03:49.905Z,74
2022-09-10T13:08:48.938Z,70
2022-09-10T13:13:48.683Z,70
2022-09-10T13:18:48.247Z,67
2022-09-10T13:23:48.794Z,67
2022-09-10T13:28:47.552Z,67
2022-09-10T13:33:48.280Z,69
2022-09-10T13:38:47.995Z,73
2022-09-10T13:43:47.442Z,78
2022-09-10T13:48:46.231Z,82
2022-09-10T13:53:45.479Z,84
2022-09-10T13:58:45.079Z,85
2022-09-10T14:00:06.282Z,85
2022-09-10T14:05:05.580Z,85
2022-09-10T14:10:04.637Z,86
2022-09-10T14:15:04.372Z,87
2022-09-10T14:20:04.209Z,88
2022-09-10T14:25:03.963Z,85
2022-09-10T14:30:02.502Z,85
2022-09-10T14:35:07.643Z,84
2022-09-10T14:40:01.664Z,84
2022-09-10T14:45:00.562Z,83
2022-09-10T14:50:07.115Z,83
2022-09-10T14:54:58.442Z,78
2022-09-10T14:59:18.424Z,76
2022-09-10T15:04:19.041Z,77
2022-09-10T15:09:19.903Z,78
2022-09-10T15:14:16.488Z,79
2022-09-10T15:19:16.728Z,79
2022-09-10T15:24:16.464Z,78
2022-09-10T15:29:15.360Z,76
2022-09-10T15:34:15.010Z,75
2022-09-10T15:39:15.053Z,75
2022-09-10T15:44:14.337Z,75
2022-09-10T15:49:23.187Z,74
2022-09-10T15:54:22.993Z,75
2022-09-10T15:59:03.342Z,75
2022-09-10T16:04:02.897Z,75
2022-09-10T16:09:01.485Z,75
2022-09-10T16:14:05.001Z,76
2022-09-10T16:19:00.233Z,76
2022-09-10T16:23:59.657Z,76
2022-09-10T16:28:59.810Z,76
2022-09-10T16:33:57.102Z,76
2022-09-10T16:38:56.941Z,76
2022-09-10T16:43:56.828Z,77
2022-09-10T16:48:56.336Z,77
2022-09-10T16:53:55.546Z,77
2022-09-10T16:58:41.849Z,78
2022-09-10T17:03:42.078Z,78
2022-09-10T17:08:41.449Z,80
2022-09-10T17:13:39.993Z,81
2022-09-10T17:18:39.593Z,83
2022-09-10T17:23:39.730Z,84
2022-09-10T17:28:39.173Z,85
2022-09-10T17:33:37.566Z,85
2022-09-10T17:38:36.872Z,85
2022-09-10T17:43:37.015Z,85
2022-09-10T17:48:35.891Z,85
2022-09-10T17:53:36.450Z,86
2022-09-10T17:58:33.553Z,86
2022-09-10T17:59:54.759Z,86
2022-09-10T18:04:54.518Z,86
2022-09-10T18:09:53.925Z,86
2022-09-10T18:14:53.030Z,86
2022-09-10T18:19:52.395Z,86
2022-09-10T18:24:52.198Z,86
2022-09-10T18:29:51.785Z,86
2022-09-10T18:34:50.798Z,86
2022-09-10T18:39:49.838Z,87
2022-09-10T18:44:49.945Z,87
2022-09-10T18:49:48.954Z,87
2022-09-10T18:54:47.719Z,86
2022-09-10T18:59:05.531Z,86
2022-09-10T19:04:05.508Z,86
2022-09-10T19:09:04.640Z,86
2022-09-10T19:14:04.081Z,85
2022-09-10T19:19:03.295Z,84
2022-09-10T19:24:03.145Z,84
2022-09-10T19:29:03.360Z,84
2022-09-10T19:34:02.555Z,83
2022-09-10T19:39:01.622Z,83
2022-09-10T19:44:00.515Z,83
2022-09-10T19:49:00.789Z,84
2022-09-10T19:54:00.016Z,84
2022-09-10T19:58:58.326Z,85
2022-09-10T20:03:57.620Z,85
2022-09-10T20:08:57.699Z,85
2022-09-10T20:13:56.700Z,86
2022-09-10T20:18:57.653Z,86
2022-09-10T20:23:54.543Z,86
2022-09-10T20:28:54.451Z,86
2022-09-10T20:33:55.028Z,86
2022-09-10T20:38:53.006Z,86
2022-09-10T20:43:52.292Z,86
2022-09-10T20:48:52.462Z,87
2022-09-10T20:53:51.472Z,88
2022-09-10T20:58:52.234Z,89
2022-09-10T21:03:49.032Z,90
2022-09-10T21:08:48.735Z,91
2022-09-10T21:13:48.904Z,91
2022-09-10T21:18:54.702Z,92
2022-09-10T21:23:47.458Z,93
2022-09-10T21:28:47.196Z,93
2022-09-10T21:33:47.096Z,93
2022-09-10T21:38:46.911Z,94
2022-09-10T21:43:45.555Z,94
2022-09-10T21:48:45.212Z,94
2022-09-10T21:53:44.872Z,94
2022-09-10T21:58:45.640Z,94
2022-09-10T22:03:44.242Z,94
2022-09-10T22:08:42.936Z,94
2022-09-10T22:13:42.091Z,94
2022-09-10T22:18:42.756Z,94
2022-09-10T22:23:41.476Z,94
2022-09-10T22:28:41.074Z,94
2022-09-10T22:33:40.504Z,94
2022-09-10T22:38:40.169Z,93
2022-09-10T22:43:39.208Z,93
2022-09-10T22:48:37.870Z,93
2022-09-10T22:53:36.752Z,93
2022-09-10T22:58:36.443Z,93
2022-09-10T22:59:58.230Z,93
2022-09-10T23:04:56.426Z,93
2022-09-10T23:09:55.978Z,93
2022-09-10T23:14:56.015Z,92
2022-09-10T23:19:55.323Z,92
2022-09-10T23:24:55.788Z,92
2022-09-10T23:29:52.824Z,92
2022-09-10T23:34:52.797Z,92
2022-09-10T23:39:52.663Z,92
2022-09-10T23:44:52.143Z,92
2022-09-10T23:49:51.276Z,92
2022-09-10T23:54:50.876Z,92
2022-09-10T23:58:55.932Z,91
